Time;durP1;ratioP1;P1;durP2;ratioP2;P2;SDS_P1;SDS_P2;PMS_P1;PMS_P2;Temp;Humidity;BMP_temperature;BMP_pressure;BME280_temperature;BME280_humidity;BME280_pressure;Samples;Min_cycle;Max_cycle;Signal;HPM_P1;HPM_P2
2022/02/25 00:00:26;;;;;;;2.08;1.10;;;4.50;99.90;;;;;;2050029;28;20495;-73
2022/02/25 00:01:27;;;;;;;1.20;1.10;;;4.50;99.90;;;;;;2050533;28;20035;-72
2022/02/25 00:02:27;;;;;;;1.38;1.27;;;4.50;99.90;;;;;;2050149;29;20399;-71
2022/02/25 00:03:28;;;;;;;1.63;1.30;;;4.50;99.90;;;;;;2050430;28;20031;-74
2022/02/25 00:04:28;;;;;;;1.88;1.10;;;4.40;99.90;;;;;;2050238;28;20530;-73
2022/02/25 00:05:29;;;;;;;1.88;1.00;;;4.40;99.90;;;;;;2050266;28;20185;-73
2022/02/25 00:06:30;;;;;;;1.27;1.17;;;4.40;99.90;;;;;;2066213;28;20445;-74
2022/02/25 00:07:30;;;;;;;1.17;0.95;;;4.40;99.90;;;;;;2066902;28;20097;-73
2022/02/25 00:08:33;;;;;;;1.05;0.90;;;4.40;99.90;;;;;;2051290;28;20517;-71
2022/02/25 00:09:33;;;;;;;2.47;1.02;;;4.40;99.90;;;;;;2051046;28;20027;-72
2022/02/25 00:10:34;;;;;;;1.27;1.05;;;4.40;99.90;;;;;;2066916;28;20482;-74
2022/02/25 00:11:35;;;;;;;1.20;1.10;;;4.40;99.90;;;;;;2058567;28;20039;-72
2022/02/25 00:12:36;;;;;;;2.50;1.10;;;4.40;99.90;;;;;;2049698;29;20031;-74
2022/02/25 00:13:37;;;;;;;1.35;1.02;;;4.40;99.90;;;;;;2050178;28;20031;-73
2022/02/25 00:14:37;;;;;;;1.70;1.08;;;4.40;99.90;;;;;;2050462;28;20391;-73
2022/02/25 00:15:38;;;;;;;1.00;1.00;;;4.40;99.90;;;;;;2050069;28;20058;-73
2022/02/25 00:16:38;;;;;;;1.65;1.13;;;4.40;99.90;;;;;;2058037;28;20094;-73
2022/02/25 00:17:39;;;;;;;1.65;1.20;;;4.40;99.90;;;;;;2058694;28;20031;-73
2022/02/25 00:18:40;;;;;;;2.40;1.10;;;4.40;99.90;;;;;;2050007;28;20038;-72
2022/02/25 00:19:41;;;;;;;1.75;1.00;;;4.40;99.90;;;;;;2049310;28;20083;-72
2022/02/25 00:20:41;;;;;;;2.10;1.10;;;4.40;99.90;;;;;;2051810;28;20035;-70
2022/02/25 00:21:42;;;;;;;1.33;1.02;;;4.40;99.90;;;;;;2052226;29;20027;-73
2022/02/25 00:22:43;;;;;;;1.90;1.10;;;4.30;99.90;;;;;;2052393;28;20488;-72
2022/02/25 00:23:43;;;;;;;2.08;1.30;;;4.30;99.90;;;;;;2052415;28;20121;-73
2022/02/25 00:24:44;;;;;;;1.30;1.20;;;4.30;99.90;;;;;;2055516;28;20055;-73
2022/02/25 00:25:45;;;;;;;1.10;1.00;;;4.40;99.90;;;;;;2055420;28;20551;-73
2022/02/25 00:26:45;;;;;;;2.17;1.20;;;4.30;99.90;;;;;;2055089;28;20063;-73
2022/02/25 00:27:46;;;;;;;1.80;1.20;;;4.30;99.90;;;;;;2038669;29;20051;-72
2022/02/25 00:28:46;;;;;;;2.05;1.20;;;4.30;99.90;;;;;;2047498;29;20036;-72
2022/02/25 00:29:47;;;;;;;1.77;1.10;;;4.30;99.90;;;;;;2053625;28;20031;-70
2022/02/25 00:30:48;;;;;;;1.30;1.10;;;4.40;99.90;;;;;;2055252;28;20111;-73
2022/02/25 00:31:49;;;;;;;2.88;1.20;;;4.40;99.90;;;;;;2054443;29;20101;-71
2022/02/25 00:32:49;;;;;;;1.75;1.27;;;4.40;99.90;;;;;;2054167;29;20494;-74
2022/02/25 00:33:50;;;;;;;1.63;1.38;;;4.40;99.90;;;;;;2046237;29;20069;-71
2022/02/25 00:34:51;;;;;;;1.10;1.10;;;4.40;99.90;;;;;;2035580;28;20040;-71
2022/02/25 00:35:51;;;;;;;1.48;1.33;;;4.40;99.90;;;;;;2051699;29;20023;-71
2022/02/25 00:36:52;;;;;;;2.67;1.33;;;4.40;99.90;;;;;;2053674;28;20027;-71
2022/02/25 00:37:53;;;;;;;3.05;1.50;;;4.40;99.90;;;;;;2054147;28;20027;-70
2022/02/25 00:38:53;;;;;;;3.60;1.45;;;4.40;99.90;;;;;;2053480;28;20028;-70
2022/02/25 00:39:54;;;;;;;2.40;1.70;;;4.40;99.90;;;;;;2050907;29;20023;-70
2022/02/25 00:40:55;;;;;;;1.80;1.70;;;4.40;99.90;;;;;;2050115;29;20023;-71
2022/02/25 00:41:55;;;;;;;2.10;1.73;;;4.30;99.90;;;;;;2051202;29;20125;-74
2022/02/25 00:42:56;;;;;;;3.05;2.40;;;4.40;99.90;;;;;;2041516;29;20078;-70
2022/02/25 00:43:57;;;;;;;4.68;2.70;;;4.40;99.90;;;;;;2048995;29;20027;-72
2022/02/25 00:44:57;;;;;;;4.13;2.50;;;4.40;99.90;;;;;;2049692;28;20027;-71
2022/02/25 00:45:58;;;;;;;2.95;2.35;;;4.30;99.90;;;;;;2049759;28;20030;-72
2022/02/25 00:46:59;;;;;;;5.30;2.90;;;4.30;99.90;;;;;;2056724;28;20026;-71
2022/02/25 00:47:59;;;;;;;3.25;2.33;;;4.30;99.90;;;;;;2056962;28;20430;-71
2022/02/25 00:49:00;;;;;;;2.70;2.00;;;4.30;99.90;;;;;;2049323;28;20027;-72
2022/02/25 00:50:01;;;;;;;2.50;1.80;;;4.30;99.90;;;;;;2048553;29;20032;-71
2022/02/25 00:51:02;;;;;;;2.83;1.80;;;4.30;99.90;;;;;;2049043;29;20031;-71
2022/02/25 00:52:03;;;;;;;2.03;1.88;;;4.30;99.90;;;;;;2049261;28;20091;-72
2022/02/25 00:53:03;;;;;;;2.05;1.85;;;4.30;99.90;;;;;;2049266;28;20114;-70
2022/02/25 00:54:04;;;;;;;2.85;1.90;;;4.30;99.90;;;;;;2049054;28;20862;-72
2022/02/25 00:55:05;;;;;;;3.88;1.95;;;4.30;99.90;;;;;;2056323;28;20031;-70
2022/02/25 00:56:06;;;;;;;2.00;1.90;;;4.30;99.90;;;;;;2056591;28;20376;-70
2022/02/25 00:57:07;;;;;;;2.40;1.90;;;4.40;99.90;;;;;;2049329;28;20037;-71
2022/02/25 00:58:08;;;;;;;3.00;1.90;;;4.40;99.90;;;;;;2049343;28;20023;-71
2022/02/25 00:59:09;;;;;;;3.53;2.20;;;4.40;99.90;;;;;;2049254;28;20057;-71
2022/02/25 01:00:10;;;;;;;2.75;1.95;;;4.30;99.90;;;;;;2049248;28;20471;-69
2022/02/25 01:01:10;;;;;;;3.25;2.15;;;4.40;99.90;;;;;;2049152;28;20070;-72
2022/02/25 01:02:11;;;;;;;2.85;2.03;;;4.40;99.90;;;;;;2056733;28;20042;-71
2022/02/25 01:03:12;;;;;;;2.42;2.00;;;4.40;99.90;;;;;;2057230;28;20034;-71
2022/02/25 01:04:13;;;;;;;2.38;1.90;;;4.40;99.90;;;;;;2049848;28;20059;-72
2022/02/25 01:05:14;;;;;;;2.90;2.10;;;4.40;99.90;;;;;;2056454;28;20034;-73
2022/02/25 01:06:15;;;;;;;2.72;2.10;;;4.40;99.90;;;;;;2064426;28;20027;-71
2022/02/25 01:07:15;;;;;;;2.28;1.98;;;4.40;99.90;;;;;;2064822;28;20037;-71
2022/02/25 01:08:16;;;;;;;2.33;1.90;;;4.50;99.90;;;;;;2065214;28;20128;-70
2022/02/25 01:09:17;;;;;;;2.30;2.10;;;4.50;99.90;;;;;;2065775;28;20089;-70
2022/02/25 01:10:18;;;;;;;2.20;2.00;;;4.50;99.90;;;;;;2066056;28;20026;-70
2022/02/25 01:11:19;;;;;;;2.35;2.15;;;4.50;99.90;;;;;;2065592;28;20042;-71
2022/02/25 01:12:20;;;;;;;2.67;2.40;;;4.50;99.90;;;;;;2057692;28;20023;-71
2022/02/25 01:13:20;;;;;;;2.88;2.20;;;4.50;99.90;;;;;;2065085;28;20110;-70
2022/02/25 01:14:21;;;;;;;2.55;2.35;;;4.40;99.90;;;;;;2072813;28;20440;-71
2022/02/25 01:15:21;;;;;;;2.40;2.20;;;4.50;99.90;;;;;;2065858;28;20042;-70
2022/02/25 01:16:22;;;;;;;2.60;2.20;;;4.40;99.90;;;;;;2065254;28;20052;-70
2022/02/25 01:17:23;;;;;;;2.28;2.10;;;4.40;99.90;;;;;;2065699;28;20027;-70
2022/02/25 01:18:24;;;;;;;2.88;2.63;;;4.50;99.90;;;;;;2065529;28;20018;-70
2022/02/25 01:19:25;;;;;;;3.47;2.38;;;4.50;99.90;;;;;;2064608;28;20094;-71
2022/02/25 01:20:25;;;;;;;2.33;2.13;;;4.50;99.90;;;;;;2065193;28;20030;-71
2022/02/25 01:21:26;;;;;;;4.90;2.50;;;4.50;99.90;;;;;;2065495;28;20035;-70
2022/02/25 01:22:27;;;;;;;3.10;2.53;;;4.40;99.90;;;;;;2065573;28;20034;-72
2022/02/25 01:23:27;;;;;;;2.63;2.40;;;4.50;99.90;;;;;;2065389;28;20061;-70
2022/02/25 01:24:28;;;;;;;2.97;2.50;;;4.50;99.90;;;;;;2065443;28;20046;-69
2022/02/25 01:25:30;;;;;;;2.78;2.42;;;4.40;99.90;;;;;;2064709;28;20050;-70
2022/02/25 01:26:31;;;;;;;2.80;2.50;;;4.40;99.90;;;;;;2056893;28;20039;-70
2022/02/25 01:27:32;;;;;;;3.35;2.45;;;4.30;99.90;;;;;;2064608;28;20026;-70
2022/02/25 01:28:35;;;;;;;3.70;2.60;;;4.30;99.90;;;;;;2065406;28;20482;-70
2022/02/25 01:29:36;;;;;;;3.38;2.47;;;4.30;99.90;;;;;;2065650;28;20030;-70
2022/02/25 01:30:37;;;;;;;3.67;2.65;;;4.30;99.90;;;;;;2072869;28;20531;-70
2022/02/25 01:31:38;;;;;;;2.90;2.60;;;4.20;99.90;;;;;;2072928;28;20038;-69
2022/02/25 01:32:39;;;;;;;3.63;2.70;;;4.20;99.90;;;;;;2065295;28;20035;-69
2022/02/25 01:33:39;;;;;;;3.88;2.80;;;4.20;99.90;;;;;;2056342;28;20026;-71
2022/02/25 01:34:40;;;;;;;3.22;2.63;;;4.20;99.90;;;;;;2056539;28;20026;-70
2022/02/25 01:35:40;;;;;;;6.28;3.00;;;4.20;99.90;;;;;;2065086;28;20101;-70
2022/02/25 01:36:41;;;;;;;3.88;2.80;;;4.20;99.90;;;;;;2063453;28;20397;-71
2022/02/25 01:37:44;;;;;;;2.88;2.60;;;4.10;99.90;;;;;;2056937;28;20046;-71
2022/02/25 01:38:45;;;;;;;3.45;2.70;;;4.10;99.90;;;;;;2063036;28;20391;-70
2022/02/25 01:39:46;;;;;;;3.80;3.03;;;4.10;99.90;;;;;;2063319;28;20117;-70
2022/02/25 01:40:49;;;;;;;3.70;3.30;;;4.10;99.90;;;;;;2064880;28;20105;-72
2022/02/25 01:41:50;;;;;;;4.22;3.10;;;4.00;99.90;;;;;;2064780;28;20030;-71
2022/02/25 01:42:52;;;;;;;4.60;3.20;;;4.00;99.90;;;;;;2064040;28;20130;-72
2022/02/25 01:44:12;;;;;;;4.75;2.90;;;4.00;99.90;;;;;;2061885;28;20512;-71
2022/02/25 01:45:14;;;;;;;3.55;3.00;;;4.00;99.90;;;;;;2062404;28;20038;-71
2022/02/25 01:46:14;;;;;;;3.33;3.03;;;4.00;99.90;;;;;;2061349;28;20030;-71
2022/02/25 01:47:15;;;;;;;5.40;3.20;;;4.00;99.90;;;;;;2060904;28;20031;-71
2022/02/25 01:48:19;;;;;;;3.42;3.10;;;3.90;99.90;;;;;;2063388;28;20049;-71
2022/02/25 01:49:21;;;;;;;3.95;3.22;;;3.90;99.90;;;;;;2065548;28;20026;-71
2022/02/25 01:50:22;;;;;;;4.13;3.10;;;3.90;99.90;;;;;;2062302;28;20122;-70
2022/02/25 01:51:25;;;;;;;3.40;3.10;;;3.90;99.90;;;;;;2061356;28;20027;-70
2022/02/25 01:52:26;;;;;;;3.85;3.10;;;3.90;99.90;;;;;;2063665;28;20468;-71
2022/02/25 01:53:27;;;;;;;3.67;3.30;;;3.90;99.90;;;;;;2066816;28;20505;-70
2022/02/25 01:54:29;;;;;;;4.80;3.30;;;3.90;99.90;;;;;;2066603;28;20057;-70
2022/02/25 01:55:31;;;;;;;5.05;3.38;;;3.90;99.90;;;;;;2062049;28;20057;-70
2022/02/25 01:56:32;;;;;;;4.97;3.20;;;3.90;99.90;;;;;;2074685;28;20436;-70
2022/02/25 01:57:33;;;;;;;3.47;3.17;;;3.90;99.90;;;;;;2069710;28;20022;-69
2022/02/25 01:58:34;;;;;;;5.93;3.08;;;3.90;99.90;;;;;;2066852;28;20113;-70
2022/02/25 01:59:37;;;;;;;4.53;3.08;;;3.80;99.90;;;;;;2060101;28;20114;-70
2022/02/25 02:00:37;;;;;;;3.70;3.20;;;3.80;99.90;;;;;;2071732;28;20094;-69
2022/02/25 02:01:38;;;;;;;5.28;3.25;;;3.80;99.90;;;;;;2066303;28;20039;-69
2022/02/25 02:02:38;;;;;;;4.82;3.20;;;3.80;99.90;;;;;;2072472;28;20045;-71
2022/02/25 02:03:39;;;;;;;4.18;3.30;;;3.80;99.90;;;;;;2057311;28;20109;-73
2022/02/25 02:04:40;;;;;;;4.68;3.00;;;3.80;99.90;;;;;;2071339;28;20057;-70
2022/02/25 02:05:41;;;;;;;3.97;3.40;;;3.80;99.90;;;;;;2065936;28;20606;-70
2022/02/25 02:06:42;;;;;;;3.70;3.28;;;3.80;99.90;;;;;;2064392;28;20038;-72
2022/02/25 02:07:43;;;;;;;3.75;3.00;;;3.70;99.90;;;;;;2056545;28;20067;-70
2022/02/25 02:08:43;;;;;;;4.25;3.13;;;3.70;99.90;;;;;;2056093;28;20065;-69
2022/02/25 02:09:44;;;;;;;4.97;3.40;;;3.70;99.90;;;;;;2069477;28;20121;-70
2022/02/25 02:10:45;;;;;;;4.22;3.20;;;3.70;99.90;;;;;;2064245;28;20033;-69
2022/02/25 02:11:47;;;;;;;4.35;3.30;;;3.70;99.90;;;;;;2056224;28;20041;-70
2022/02/25 02:12:49;;;;;;;4.18;3.17;;;3.70;99.90;;;;;;2063945;28;20398;-69
2022/02/25 02:13:49;;;;;;;4.57;3.05;;;3.70;99.90;;;;;;2048344;28;20459;-70
2022/02/25 02:14:50;;;;;;;4.20;3.20;;;3.60;99.90;;;;;;2046539;28;20047;-70
2022/02/25 02:15:51;;;;;;;4.05;3.40;;;3.60;99.90;;;;;;2056875;28;20061;-69
2022/02/25 02:16:55;;;;;;;3.90;3.17;;;3.60;99.90;;;;;;2064600;28;20033;-70
2022/02/25 02:17:56;;;;;;;4.10;3.35;;;3.60;99.90;;;;;;2061958;28;20057;-70
2022/02/25 02:18:56;;;;;;;3.80;3.28;;;3.60;99.90;;;;;;2062772;28;20081;-70
2022/02/25 02:19:58;;;;;;;3.83;3.33;;;3.60;99.90;;;;;;2057721;28;20030;-70
2022/02/25 02:20:58;;;;;;;3.53;2.90;;;3.60;99.90;;;;;;2061995;28;20032;-70
2022/02/25 02:21:59;;;;;;;4.72;3.40;;;3.60;99.90;;;;;;2057922;28;20023;-69
2022/02/25 02:23:00;;;;;;;4.28;3.33;;;3.50;99.90;;;;;;2062043;28;20026;-69
2022/02/25 02:24:01;;;;;;;3.90;3.28;;;3.50;99.90;;;;;;2057291;28;20374;-69
2022/02/25 02:25:02;;;;;;;4.85;3.45;;;3.50;99.90;;;;;;2060794;28;20383;-69
2022/02/25 02:26:03;;;;;;;4.82;3.60;;;3.50;99.90;;;;;;2058757;28;20033;-71
2022/02/25 02:27:04;;;;;;;3.65;3.03;;;3.50;99.90;;;;;;2061274;28;20458;-69
2022/02/25 02:28:20;;;;;;;3.47;3.15;;;3.50;99.90;;;;;;2058961;28;20122;-69
2022/02/25 02:29:21;;;;;;;4.80;3.30;;;3.50;99.90;;;;;;2058358;28;20078;-69
2022/02/25 02:30:22;;;;;;;4.35;3.50;;;3.50;99.90;;;;;;2052848;28;20033;-69
2022/02/25 02:31:23;;;;;;;4.47;3.25;;;3.50;99.90;;;;;;2050236;28;20039;-70
2022/02/25 02:32:23;;;;;;;4.82;3.30;;;3.50;99.90;;;;;;2061973;28;20105;-70
2022/02/25 02:33:24;;;;;;;5.38;3.33;;;3.50;99.90;;;;;;2067450;28;20092;-70
2022/02/25 02:34:24;;;;;;;3.58;3.22;;;3.50;99.90;;;;;;2072829;28;20053;-71
2022/02/25 02:35:25;;;;;;;4.40;3.22;;;3.50;99.90;;;;;;2060865;28;20573;-70
2022/02/25 02:36:26;;;;;;;3.47;2.90;;;3.50;99.90;;;;;;2061922;28;20046;-71
2022/02/25 02:37:26;;;;;;;4.30;3.20;;;3.50;99.90;;;;;;2061583;28;20160;-70
2022/02/25 02:38:27;;;;;;;3.72;3.10;;;3.50;99.90;;;;;;2065260;28;20053;-70
2022/02/25 02:39:27;;;;;;;3.88;3.20;;;3.50;99.90;;;;;;2067394;28;20034;-70
2022/02/25 02:40:28;;;;;;;3.83;2.92;;;3.50;99.90;;;;;;2064690;28;20030;-70
2022/02/25 02:41:29;;;;;;;4.13;3.30;;;3.50;99.90;;;;;;2064415;28;20022;-70
2022/02/25 02:42:29;;;;;;;4.07;3.30;;;3.50;99.90;;;;;;2064413;28;20478;-70
2022/02/25 02:43:30;;;;;;;4.57;3.00;;;3.50;99.90;;;;;;2063730;28;20072;-70
2022/02/25 02:44:31;;;;;;;4.32;3.17;;;3.50;99.90;;;;;;2065852;28;20077;-71
2022/02/25 02:45:31;;;;;;;4.03;3.20;;;3.50;99.90;;;;;;2065021;28;20041;-71
2022/02/25 02:46:32;;;;;;;3.55;2.92;;;3.60;99.90;;;;;;2064204;28;20034;-74
2022/02/25 02:47:33;;;;;;;3.72;3.13;;;3.60;99.90;;;;;;2056243;28;20043;-70
2022/02/25 02:48:35;;;;;;;4.68;3.17;;;3.60;99.90;;;;;;2063120;28;20038;-70
2022/02/25 02:49:35;;;;;;;4.93;2.88;;;3.60;99.90;;;;;;2063032;28;20529;-70
2022/02/25 02:50:36;;;;;;;5.50;3.22;;;3.60;99.90;;;;;;2063616;28;20061;-70
2022/02/25 02:51:37;;;;;;;5.15;3.50;;;3.70;99.90;;;;;;2064122;28;20441;-70
2022/02/25 02:52:38;;;;;;;5.25;3.58;;;3.60;99.90;;;;;;2063435;28;20023;-71
2022/02/25 02:53:38;;;;;;;4.10;3.20;;;3.70;99.90;;;;;;2063244;28;20038;-70
2022/02/25 02:54:39;;;;;;;3.90;3.03;;;3.70;99.90;;;;;;2063682;28;20114;-71
2022/02/25 02:55:43;;;;;;;5.00;3.40;;;3.70;99.90;;;;;;2063958;28;20034;-70
2022/02/25 02:56:44;;;;;;;4.03;3.50;;;3.70;99.90;;;;;;2064071;28;20064;-72
2022/02/25 02:57:44;;;;;;;5.13;3.47;;;3.70;99.90;;;;;;2063430;28;20712;-70
2022/02/25 02:58:46;;;;;;;4.38;3.00;;;3.70;99.90;;;;;;2063283;28;20046;-70
2022/02/25 02:59:46;;;;;;;5.07;3.30;;;3.70;99.90;;;;;;2062922;28;20026;-70
2022/02/25 03:00:49;;;;;;;4.18;3.10;;;3.80;99.90;;;;;;2055207;28;20031;-71
2022/02/25 03:01:50;;;;;;;4.35;2.80;;;3.80;99.90;;;;;;2055801;28;20081;-70
2022/02/25 03:02:50;;;;;;;5.13;3.10;;;3.80;99.90;;;;;;2063473;28;20090;-70
2022/02/25 03:03:51;;;;;;;4.45;3.28;;;3.80;99.90;;;;;;2063754;28;20750;-70
2022/02/25 03:04:52;;;;;;;4.40;3.10;;;3.80;99.90;;;;;;2063620;28;20026;-70
2022/02/25 03:05:53;;;;;;;3.25;2.83;;;3.80;99.90;;;;;;2064128;28;20385;-70
2022/02/25 03:06:53;;;;;;;4.60;3.15;;;3.80;99.90;;;;;;2064210;28;20026;-71
2022/02/25 03:07:54;;;;;;;5.80;3.50;;;3.80;99.90;;;;;;2064536;28;20067;-70
2022/02/25 03:08:55;;;;;;;5.20;2.90;;;3.80;99.90;;;;;;2063690;28;20042;-70
2022/02/25 03:09:56;;;;;;;3.92;3.00;;;3.80;99.90;;;;;;2062883;28;20174;-70
2022/02/25 03:10:56;;;;;;;3.22;2.92;;;3.80;99.90;;;;;;2064398;28;20796;-70
2022/02/25 03:11:57;;;;;;;4.18;3.10;;;3.80;99.90;;;;;;2064940;28;20070;-70
2022/02/25 03:12:58;;;;;;;3.63;3.00;;;3.80;99.90;;;;;;2064472;28;20053;-70
2022/02/25 03:13:59;;;;;;;4.45;3.38;;;3.80;99.90;;;;;;2064141;28;20027;-70
2022/02/25 03:14:59;;;;;;;5.30;3.15;;;3.80;99.90;;;;;;2064986;28;20030;-70
2022/02/25 03:16:00;;;;;;;4.05;3.20;;;3.80;99.90;;;;;;2064905;28;20658;-70
2022/02/25 03:17:01;;;;;;;3.38;3.00;;;3.80;99.90;;;;;;2064718;28;20690;-69
2022/02/25 03:18:02;;;;;;;3.85;2.90;;;3.80;99.90;;;;;;2063797;28;20825;-70
2022/02/25 03:19:02;;;;;;;4.63;3.10;;;3.80;99.90;;;;;;2063861;28;20125;-70
2022/02/25 03:20:05;;;;;;;5.03;3.47;;;3.80;99.90;;;;;;2063577;28;20505;-70
2022/02/25 03:21:07;;;;;;;5.10;3.60;;;3.80;99.90;;;;;;2064121;28;20573;-70
2022/02/25 03:22:08;;;;;;;3.83;3.00;;;3.80;99.90;;;;;;2064424;28;20029;-70
2022/02/25 03:23:26;;;;;;;3.80;3.38;;;3.70;99.90;;;;;;2065068;28;20058;-70
2022/02/25 03:24:27;;;;;;;5.28;3.65;;;3.70;99.90;;;;;;2064116;28;20031;-70
2022/02/25 03:25:28;;;;;;;5.05;3.50;;;3.70;99.90;;;;;;2064342;28;20461;-70
2022/02/25 03:26:28;;;;;;;4.50;3.55;;;3.60;99.90;;;;;;2065267;28;20034;-70
2022/02/25 03:27:29;;;;;;;4.60;3.67;;;3.60;99.90;;;;;;2065793;28;20038;-70
2022/02/25 03:28:30;;;;;;;6.05;3.53;;;3.60;99.90;;;;;;2065484;28;20038;-71
2022/02/25 03:29:31;;;;;;;5.38;3.78;;;3.60;99.90;;;;;;2064217;28;20033;-71
2022/02/25 03:30:32;;;;;;;5.97;4.00;;;3.60;99.90;;;;;;2063590;28;20053;-70
2022/02/25 03:31:32;;;;;;;5.80;3.78;;;3.60;99.90;;;;;;2063750;28;20073;-71
2022/02/25 03:32:33;;;;;;;6.25;4.00;;;3.60;99.90;;;;;;2064482;28;20466;-71
2022/02/25 03:33:33;;;;;;;6.63;4.32;;;3.60;99.90;;;;;;2065980;28;20046;-71
2022/02/25 03:34:34;;;;;;;5.88;3.58;;;3.60;99.90;;;;;;2064579;28;20058;-70
2022/02/25 03:35:35;;;;;;;6.07;3.92;;;3.50;99.90;;;;;;2063755;28;20114;-71
2022/02/25 03:36:36;;;;;;;6.18;3.85;;;3.50;99.90;;;;;;2063721;28;20138;-71
2022/02/25 03:37:37;;;;;;;5.32;3.78;;;3.50;99.90;;;;;;2063176;28;20221;-71
2022/02/25 03:38:37;;;;;;;5.18;3.85;;;3.50;99.90;;;;;;2063224;28;20052;-71
2022/02/25 03:39:38;;;;;;;4.97;3.60;;;3.50;99.90;;;;;;2062712;28;20034;-71
2022/02/25 03:40:39;;;;;;;5.93;4.13;;;3.40;99.90;;;;;;2063071;28;20022;-71
2022/02/25 03:41:39;;;;;;;6.07;4.00;;;3.40;99.90;;;;;;2062977;28;20085;-71
2022/02/25 03:42:40;;;;;;;6.38;4.07;;;3.40;99.90;;;;;;2055072;28;20423;-71
2022/02/25 03:43:41;;;;;;;6.25;4.28;;;3.40;99.90;;;;;;2063324;28;20060;-71
2022/02/25 03:44:41;;;;;;;5.63;4.40;;;3.40;99.90;;;;;;2063013;28;20065;-71
2022/02/25 03:45:42;;;;;;;5.32;4.30;;;3.40;99.90;;;;;;2063279;28;20084;-70
2022/02/25 03:46:43;;;;;;;5.72;4.50;;;3.40;99.90;;;;;;2063850;28;20039;-71
2022/02/25 03:47:43;;;;;;;6.57;4.50;;;3.40;99.90;;;;;;2063194;28;20037;-69
2022/02/25 03:48:44;;;;;;;5.95;4.45;;;3.40;99.90;;;;;;2055193;28;20027;-70
2022/02/25 03:49:44;;;;;;;7.20;4.50;;;3.40;99.90;;;;;;2062727;28;20529;-70
2022/02/25 03:50:45;;;;;;;7.53;4.57;;;3.40;99.90;;;;;;2063564;28;20038;-69
2022/02/25 03:51:45;;;;;;;5.13;4.30;;;3.40;99.90;;;;;;2063835;28;20034;-69
2022/02/25 03:52:46;;;;;;;5.95;4.78;;;3.40;99.90;;;;;;2063822;28;20061;-70
2022/02/25 03:53:48;;;;;;;5.90;4.53;;;3.40;99.90;;;;;;2063570;28;20070;-70
2022/02/25 03:54:48;;;;;;;8.32;5.00;;;3.40;99.90;;;;;;2063307;28;20022;-70
2022/02/25 03:55:49;;;;;;;7.78;4.88;;;3.40;99.90;;;;;;2063181;28;20573;-69
2022/02/25 03:56:50;;;;;;;6.75;4.75;;;3.40;99.90;;;;;;2063146;28;20026;-70
2022/02/25 03:57:50;;;;;;;7.63;5.15;;;3.40;99.90;;;;;;2063692;28;20121;-70
2022/02/25 03:58:52;;;;;;;8.38;5.07;;;3.40;99.90;;;;;;2063787;28;20026;-70
2022/02/25 03:59:53;;;;;;;6.78;4.95;;;3.40;99.90;;;;;;2063278;28;20026;-70
2022/02/25 04:00:53;;;;;;;7.43;5.43;;;3.40;99.90;;;;;;2062942;28;20026;-70
2022/02/25 04:01:54;;;;;;;5.95;4.70;;;3.40;99.90;;;;;;2062999;28;20019;-70
2022/02/25 04:02:56;;;;;;;8.55;5.45;;;3.40;99.90;;;;;;2062934;28;20494;-70
2022/02/25 04:03:56;;;;;;;8.18;5.28;;;3.40;99.90;;;;;;2062597;28;20050;-70
2022/02/25 04:04:57;;;;;;;7.30;4.90;;;3.30;99.90;;;;;;2063676;28;20028;-71
2022/02/25 04:05:57;;;;;;;6.97;5.18;;;3.30;99.90;;;;;;2063742;28;20032;-71
2022/02/25 04:06:58;;;;;;;6.97;5.40;;;3.30;99.90;;;;;;2063094;28;20038;-71
2022/02/25 04:07:59;;;;;;;6.93;4.93;;;3.30;99.90;;;;;;2063426;28;20034;-70
2022/02/25 04:09:00;;;;;;;6.65;5.00;;;3.30;99.90;;;;;;2071310;28;20029;-70
2022/02/25 04:10:01;;;;;;;7.45;5.10;;;3.30;99.90;;;;;;2070833;28;20069;-71
2022/02/25 04:11:01;;;;;;;6.38;5.20;;;3.20;99.90;;;;;;2063881;28;20057;-70
2022/02/25 04:12:02;;;;;;;6.90;5.30;;;3.20;99.90;;;;;;2063800;28;20065;-71
2022/02/25 04:13:04;;;;;;;8.23;5.40;;;3.20;99.90;;;;;;2063836;28;20042;-70
2022/02/25 04:14:05;;;;;;;8.20;5.55;;;3.20;99.90;;;;;;2063426;28;20549;-71
2022/02/25 04:15:07;;;;;;;7.43;5.50;;;3.10;99.90;;;;;;2063714;28;20034;-70
2022/02/25 04:16:08;;;;;;;7.18;5.00;;;3.10;99.90;;;;;;2071705;28;20038;-70
2022/02/25 04:17:10;;;;;;;7.28;5.60;;;3.10;99.90;;;;;;2071405;28;20057;-70
2022/02/25 04:18:11;;;;;;;7.60;5.43;;;3.10;99.90;;;;;;2064077;28;20495;-70
2022/02/25 04:19:11;;;;;;;7.57;5.50;;;3.10;99.90;;;;;;2063772;28;20738;-71
2022/02/25 04:20:12;;;;;;;6.97;5.57;;;3.10;99.90;;;;;;2062832;28;20026;-70
2022/02/25 04:21:13;;;;;;;6.30;5.22;;;3.10;99.90;;;;;;2063398;28;20022;-70
2022/02/25 04:22:14;;;;;;;7.72;5.40;;;3.10;99.90;;;;;;2063901;28;20785;-70
2022/02/25 04:23:15;;;;;;;9.32;5.70;;;3.10;99.90;;;;;;2064151;28;20037;-68
2022/02/25 04:24:15;;;;;;;8.40;5.60;;;3.10;99.90;;;;;;2063558;28;20041;-70
2022/02/25 04:25:16;;;;;;;7.70;5.28;;;3.10;99.90;;;;;;2063702;28;20054;-70
2022/02/25 04:26:16;;;;;;;6.80;5.47;;;3.10;99.90;;;;;;2063739;28;20030;-70
2022/02/25 04:27:18;;;;;;;7.05;5.35;;;3.10;99.90;;;;;;2064092;28;20109;-70
2022/02/25 04:28:18;;;;;;;7.88;5.47;;;3.10;99.90;;;;;;2064111;28;20023;-70
2022/02/25 04:29:19;;;;;;;7.22;5.60;;;3.10;99.90;;;;;;2064158;28;20054;-70
2022/02/25 04:30:20;;;;;;;8.05;5.40;;;3.10;99.90;;;;;;2059221;28;20031;-69
2022/02/25 04:31:20;;;;;;;8.73;5.63;;;3.10;99.90;;;;;;2063456;28;20111;-70
2022/02/25 04:32:21;;;;;;;7.88;5.50;;;3.10;99.90;;;;;;2072233;28;20038;-69
2022/02/25 04:33:22;;;;;;;8.25;5.20;;;3.10;99.90;;;;;;2072035;28;20397;-69
2022/02/25 04:34:22;;;;;;;8.40;5.10;;;3.10;99.90;;;;;;2072484;28;20030;-71
2022/02/25 04:35:23;;;;;;;6.40;4.95;;;3.10;99.90;;;;;;2073971;28;20018;-71
2022/02/25 04:36:23;;;;;;;6.95;4.97;;;3.10;99.90;;;;;;2074729;28;20030;-70
2022/02/25 04:37:24;;;;;;;8.02;5.05;;;3.10;99.90;;;;;;2074178;28;20027;-70
2022/02/25 04:38:25;;;;;;;8.82;5.07;;;3.10;99.90;;;;;;2073607;28;20050;-70
2022/02/25 04:39:25;;;;;;;7.88;5.30;;;3.10;99.90;;;;;;2072664;28;20042;-71
2022/02/25 04:40:27;;;;;;;6.93;5.03;;;3.10;99.90;;;;;;2073024;28;20022;-70
2022/02/25 04:41:27;;;;;;;8.00;5.25;;;3.00;99.90;;;;;;2064023;28;20035;-71
2022/02/25 04:42:28;;;;;;;8.38;5.50;;;3.00;99.90;;;;;;2060440;28;20106;-70
2022/02/25 04:43:29;;;;;;;9.60;5.35;;;3.00;99.90;;;;;;2068562;28;20042;-70
2022/02/25 04:44:29;;;;;;;7.90;5.38;;;3.10;99.90;;;;;;2070942;28;20043;-71
2022/02/25 04:45:30;;;;;;;7.22;5.20;;;3.10;99.90;;;;;;2074443;28;20038;-71
2022/02/25 04:46:31;;;;;;;8.25;5.30;;;3.10;99.90;;;;;;2074255;28;20027;-71
2022/02/25 04:47:31;;;;;;;7.75;5.40;;;3.10;99.90;;;;;;2074229;28;20045;-71
2022/02/25 04:48:32;;;;;;;8.63;5.40;;;3.10;99.90;;;;;;2074254;28;20042;-71
2022/02/25 04:49:33;;;;;;;7.15;5.22;;;3.10;99.90;;;;;;2073657;28;20022;-71
2022/02/25 04:50:33;;;;;;;8.88;5.35;;;3.10;99.90;;;;;;2074112;28;20040;-71
2022/02/25 04:51:34;;;;;;;9.27;5.50;;;3.10;99.90;;;;;;2073515;28;20061;-70
2022/02/25 04:52:34;;;;;;;6.78;5.07;;;3.10;99.90;;;;;;2073830;28;20840;-70
2022/02/25 04:53:35;;;;;;;7.85;5.40;;;3.10;99.90;;;;;;2071276;28;20039;-70
2022/02/25 04:54:36;;;;;;;7.72;5.35;;;3.00;99.90;;;;;;2072378;28;20035;-70
2022/02/25 04:55:36;;;;;;;11.15;5.43;;;3.00;99.90;;;;;;2072660;28;20018;-71
2022/02/25 04:56:37;;;;;;;10.68;5.80;;;3.00;99.90;;;;;;2069721;28;20121;-69
2022/02/25 04:57:38;;;;;;;7.88;5.40;;;3.00;99.90;;;;;;2065435;28;20026;-69
2022/02/25 04:58:39;;;;;;;7.25;5.22;;;3.00;99.90;;;;;;2064991;28;20106;-69
2022/02/25 04:59:40;;;;;;;6.47;4.72;;;3.00;99.90;;;;;;2064454;28;20039;-69
2022/02/25 05:00:41;;;;;;;7.18;5.20;;;3.10;99.90;;;;;;2065267;28;20034;-70
2022/02/25 05:01:42;;;;;;;8.02;5.00;;;3.10;99.90;;;;;;2064540;28;20100;-69
2022/02/25 05:02:44;;;;;;;8.27;5.30;;;3.10;99.90;;;;;;2064159;28;20492;-69
2022/02/25 05:03:45;;;;;;;9.57;5.53;;;3.10;99.90;;;;;;2065227;28;20486;-70
2022/02/25 05:04:47;;;;;;;8.70;5.25;;;3.00;99.90;;;;;;2064788;28;20019;-69
2022/02/25 05:05:48;;;;;;;10.55;5.07;;;3.00;99.90;;;;;;2065079;28;20062;-71
2022/02/25 05:06:48;;;;;;;8.20;4.93;;;3.00;99.90;;;;;;2064978;28;20043;-70
2022/02/25 05:07:49;;;;;;;7.00;5.32;;;3.10;99.90;;;;;;2065107;28;20034;-70
2022/02/25 05:08:52;;;;;;;9.60;5.85;;;3.00;99.90;;;;;;2064867;28;20484;-69
2022/02/25 05:09:53;;;;;;;7.85;5.65;;;3.00;99.90;;;;;;2064498;28;20835;-70
2022/02/25 05:10:54;;;;;;;6.97;5.55;;;3.00;99.90;;;;;;2064850;28;20030;-71
2022/02/25 05:11:54;;;;;;;6.97;5.45;;;3.00;99.90;;;;;;2065112;28;20034;-70
2022/02/25 05:12:55;;;;;;;6.72;5.10;;;3.00;99.90;;;;;;2065009;28;20038;-70
2022/02/25 05:13:56;;;;;;;9.45;5.47;;;3.00;99.90;;;;;;2072028;28;20050;-70
2022/02/25 05:20:26;;;;;;;8.20;5.32;;;3.00;99.90;;;;;;2064642;28;20034;-69
2022/02/25 05:21:27;;;;;;;7.45;5.18;;;3.00;99.90;;;;;;2065066;28;20375;-69
2022/02/25 05:22:28;;;;;;;7.70;5.15;;;3.00;99.90;;;;;;2064433;28;20034;-70
2022/02/25 05:23:28;;;;;;;6.80;4.80;;;2.90;99.90;;;;;;2064341;28;20402;-71
2022/02/25 05:24:29;;;;;;;7.57;5.13;;;2.90;99.90;;;;;;2064581;28;20549;-71
2022/02/25 05:25:31;;;;;;;8.13;5.22;;;2.90;99.90;;;;;;2064624;28;20696;-71
2022/02/25 05:26:31;;;;;;;7.43;4.85;;;3.00;99.90;;;;;;2064626;28;20023;-71
2022/02/25 05:27:32;;;;;;;7.65;4.63;;;3.00;99.90;;;;;;2063974;28;20120;-71